Time,TemperatureF,DewpointF,PressureIn,WindDirection,WindDirectionDegrees,WindSpeedMPH,WindSpeedGustMPH,Humidity,HourlyPrecipIn,Conditions,Clouds,dailyrainin,SoftwareType,DateUTC
2013-01-17 00:01:00,25.4,24.4,30.03,NE,41,0.0,0.0,96,0.00,,,0.00,Wunderground v.1.15,2013-01-17 00:01:00,
2013-01-17 00:10:00,25.5,24.5,30.04,NE,41,0.0,0.0,96,0.00,,,0.00,Wunderground v.1.15,2013-01-17 00:10:00,
2013-01-17 00:15:00,25.5,24.5,30.04,NE,41,0.0,0.0,96,0.00,,,0.00,Wunderground v.1.15,2013-01-17 00:15:00,
2013-01-17 00:25:00,25.6,24.6,30.04,NE,41,0.0,0.0,96,0.00,,,0.00,Wunderground v.1.15,2013-01-17 00:25:00,
2013-01-17 00:30:00,25.6,24.6,30.05,NE,41,0.0,0.0,96,0.00,,,0.00,Wunderground v.1.15,2013-01-17 00:30:00,
2013-01-17 00:40:00,25.5,24.5,30.05,NE,41,0.0,0.0,96,0.00,,,0.00,Wunderground v.1.15,2013-01-17 00:40:00,
2013-01-17 00:45:00,25.6,24.6,30.05,NE,41,0.0,0.0,96,0.00,,,0.00,Wunderground v.1.15,2013-01-17 00:45:00,
2013-01-17 00:55:00,25.6,24.6,30.05,NE,41,0.0,0.0,96,0.00,,,0.00,Wunderground v.1.15,2013-01-17 00:55:00,
2013-01-17 01:00:00,25.6,24.6,30.05,NE,41,0.0,0.0,96,0.00,,,0.00,Wunderground v.1.15,2013-01-17 01:00:00,
2013-01-17 01:10:00,25.7,24.7,30.05,NE,41,0.0,0.0,96,0.00,,,0.00,Wunderground v.1.15,2013-01-17 01:10:00,
2013-01-17 01:15:00,25.7,24.7,30.05,NE,41,0.0,0.0,96,0.00,,,0.00,Wunderground v.1.15,2013-01-17 01:15:00,
2013-01-17 01:25:00,25.7,24.7,30.05,NE,41,0.0,0.0,96,0.00,,,0.00,Wunderground v.1.15,2013-01-17 01:25:00,
2013-01-17 01:31:00,25.6,24.6,30.05,NE,41,0.0,0.0,96,0.00,,,0.00,Wunderground v.1.15,2013-01-17 01:31:00,
2013-01-17 01:40:00,25.5,24.5,30.05,NE,41,0.0,0.0,96,0.00,,,0.00,Wunderground v.1.15,2013-01-17 01:40:00,
2013-01-17 01:45:00,25.5,24.5,30.06,NE,41,0.0,0.0,96,0.00,,,0.00,Wunderground v.1.15,2013-01-17 01:45:00,
2013-01-17 01:55:00,25.4,24.4,30.06,NE,42,0.0,0.0,96,0.00,,,0.00,Wunderground v.1.15,2013-01-17 01:55:00,
2013-01-17 02:01:00,25.4,24.4,30.06,NE,41,0.0,0.0,96,0.00,,,0.00,Wunderground v.1.15,2013-01-17 02:01:00,
2013-01-17 02:10:00,25.3,24.3,30.06,NE,41,0.0,0.0,96,0.00,,,0.00,Wunderground v.1.15,2013-01-17 02:10:00,
2013-01-17 02:20:00,25.2,24.2,30.06,NE,41,0.0,0.0,96,0.00,,,0.00,Wunderground v.1.15,2013-01-17 02:20:00,
2013-01-17 02:31:00,25.2,24.2,30.06,NE,41,0.0,0.0,96,0.00,,,0.00,Wunderground v.1.15,2013-01-17 02:31:00,
2013-01-17 02:40:00,25.1,24.1,30.07,NE,41,0.0,0.0,96,0.00,,,0.00,Wunderground v.1.15,2013-01-17 02:40:00,
2013-01-17 02:46:00,25.1,24.1,30.07,NE,42,0.0,0.0,96,0.00,,,0.00,Wunderground v.1.15,2013-01-17 02:46:00,
2013-01-17 02:55:00,25.0,24.0,30.06,NE,41,0.0,0.0,96,0.00,,,0.00,Wunderground v.1.15,2013-01-17 02:55:00,
2013-01-17 03:01:00,24.9,23.9,30.06,NE,41,0.0,0.0,96,0.00,,,0.00,Wunderground v.1.15,2013-01-17 03:01:00,
2013-01-17 03:10:00,24.7,23.7,30.06,NE,41,0.0,0.0,96,0.00,,,0.00,Wunderground v.1.15,2013-01-17 03:10:00,
2013-01-17 03:15:00,24.7,23.7,30.06,NE,41,0.0,0.0,96,0.00,,,0.00,Wunderground v.1.15,2013-01-17 03:15:00,
2013-01-17 03:20:00,24.6,23.6,30.06,NE,41,0.0,0.0,96,0.00,,,0.00,Wunderground v.1.15,2013-01-17 03:20:00,
2013-01-17 03:31:00,24.4,23.2,30.07,NE,42,0.0,0.0,95,0.00,,,0.00,Wunderground v.1.15,2013-01-17 03:31:00,
2013-01-17 03:40:00,24.2,23.2,30.07,NE,42,0.0,0.0,96,0.00,,,0.00,Wunderground v.1.15,2013-01-17 03:40:00,
2013-01-17 03:50:00,24.0,22.8,30.07,NE,42,0.0,0.0,95,0.00,,,0.00,Wunderground v.1.15,2013-01-17 03:50:00,
2013-01-17 03:55:00,23.9,22.7,30.07,NE,42,0.0,0.0,95,0.00,,,0.00,Wunderground v.1.15,2013-01-17 03:55:00,
2013-01-17 04:01:00,23.7,22.5,30.07,NE,42,0.0,0.0,95,0.00,,,0.00,Wunderground v.1.15,2013-01-17 04:01:00,
2013-01-17 04:10:00,23.4,22.2,30.07,NE,42,0.0,0.0,95,0.00,,,0.00,Wunderground v.1.15,2013-01-17 04:10:00,
2013-01-17 04:20:00,23.2,22.0,30.07,NE,42,0.0,0.0,95,0.00,,,0.00,Wunderground v.1.15,2013-01-17 04:20:00,
2013-01-17 04:25:00,23.0,21.8,30.07,NE,42,0.0,0.0,95,0.00,,,0.00,Wunderground v.1.15,2013-01-17 04:25:00,
2013-01-17 04:30:00,22.9,21.7,30.07,NE,42,0.0,0.0,95,0.00,,,0.00,Wunderground v.1.15,2013-01-17 04:30:00,
2013-01-17 04:40:00,22.7,21.5,30.07,NE,41,0.0,0.0,95,0.00,,,0.00,Wunderground v.1.15,2013-01-17 04:40:00,
2013-01-17 04:46:00,22.6,21.4,30.07,NE,41,0.0,0.0,95,0.00,,,0.00,Wunderground v.1.15,2013-01-17 04:46:00,
2013-01-17 04:55:00,22.4,21.2,30.07,NE,42,0.0,0.0,95,0.00,,,0.00,Wunderground v.1.15,2013-01-17 04:55:00,
2013-01-17 05:01:00,22.2,21.0,30.07,NE,42,0.0,0.0,95,0.00,,,0.00,Wunderground v.1.15,2013-01-17 05:01:00,
2013-01-17 05:05:00,22.2,21.0,30.07,NE,41,0.0,0.0,95,0.00,,,0.00,Wunderground v.1.15,2013-01-17 05:05:00,
2013-01-17 05:15:00,22.0,20.8,30.07,NE,42,0.0,0.0,95,0.00,,,0.00,Wunderground v.1.15,2013-01-17 05:15:00,
2013-01-17 05:25:00,21.8,20.6,30.07,NE,41,0.0,0.0,95,0.00,,,0.00,Wunderground v.1.15,2013-01-17 05:25:00,
2013-01-17 05:31:00,21.9,20.9,30.07,NE,42,0.0,0.0,96,0.00,,,0.00,Wunderground v.1.15,2013-01-17 05:31:00,
2013-01-17 05:35:00,21.8,20.8,30.07,NE,42,0.0,0.0,96,0.00,,,0.00,Wunderground v.1.15,2013-01-17 05:35:00,
2013-01-17 05:40:00,21.8,20.8,30.07,NE,41,0.0,0.0,96,0.00,,,0.00,Wunderground v.1.15,2013-01-17 05:40:00,
2013-01-17 05:45:00,21.8,20.8,30.07,NE,41,0.0,0.0,96,0.00,,,0.00,Wunderground v.1.15,2013-01-17 05:45:00,
2013-01-17 05:55:00,21.8,20.8,30.07,NE,41,0.0,0.0,96,0.00,,,0.00,Wunderground v.1.15,2013-01-17 05:55:00,
2013-01-17 06:00:00,21.8,20.8,30.07,NE,42,0.0,0.0,96,0.00,,,0.00,Wunderground v.1.15,2013-01-17 06:00:00,
2013-01-17 06:10:00,22.0,21.0,30.07,NE,41,0.0,0.0,96,0.00,,,0.00,Wunderground v.1.15,2013-01-17 06:10:00,
2013-01-17 06:15:00,22.0,21.0,30.07,NE,41,0.0,0.0,96,0.00,,,0.00,Wunderground v.1.15,2013-01-17 06:15:00,
2013-01-17 06:20:00,22.2,21.2,30.07,NE,41,0.0,0.0,96,0.00,,,0.00,Wunderground v.1.15,2013-01-17 06:20:00,
2013-01-17 06:25:00,22.5,21.5,30.07,NE,41,0.0,0.0,96,0.00,,,0.00,Wunderground v.1.15,2013-01-17 06:25:00,
2013-01-17 06:31:00,23.0,22.3,30.07,NE,41,0.0,0.0,97,0.00,,,0.00,Wunderground v.1.15,2013-01-17 06:31:00,
2013-01-17 06:40:00,23.6,22.9,30.07,NE,41,0.0,0.0,97,0.00,,,0.00,Wunderground v.1.15,2013-01-17 06:40:00,
2013-01-17 06:46:00,23.7,23.0,30.07,NE,41,0.0,0.0,97,0.00,,,0.00,Wunderground v.1.15,2013-01-17 06:46:00,
2013-01-17 06:55:00,24.1,23.4,30.07,NE,41,0.0,0.0,97,0.00,,,0.00,Wunderground v.1.15,2013-01-17 06:55:00,
2013-01-17 07:01:00,24.4,23.7,30.07,NE,41,0.0,0.0,97,0.00,,,0.00,Wunderground v.1.15,2013-01-17 07:01:00,
2013-01-17 07:10:00,24.6,23.9,30.07,NE,41,0.0,0.0,97,0.00,,,0.00,Wunderground v.1.15,2013-01-17 07:10:00,
2013-01-17 07:20:00,24.9,24.2,30.08,NE,41,0.0,0.0,97,0.00,,,0.00,Wunderground v.1.15,2013-01-17 07:20:00,
2013-01-17 07:25:00,25.0,24.3,30.08,NE,41,0.0,0.0,97,0.00,,,0.00,Wunderground v.1.15,2013-01-17 07:25:00,
2013-01-17 07:30:00,25.1,24.1,30.08,NE,41,0.0,0.0,96,0.00,,,0.00,Wunderground v.1.15,2013-01-17 07:30:00,
2013-01-17 07:40:00,25.3,24.6,30.08,NE,41,0.0,0.0,97,0.00,,,0.00,Wunderground v.1.15,2013-01-17 07:40:00,
2013-01-17 07:45:00,25.4,24.4,30.08,NE,41,0.0,0.0,96,0.00,,,0.00,Wunderground v.1.15,2013-01-17 07:45:00,
2013-01-17 07:50:00,25.4,24.4,30.08,NE,41,0.0,0.0,96,0.00,,,0.00,Wunderground v.1.15,2013-01-17 07:50:00,
2013-01-17 08:01:00,25.5,24.5,30.08,NE,41,0.0,0.0,96,0.00,,,0.00,Wunderground v.1.15,2013-01-17 08:01:00,
2013-01-17 08:10:00,25.6,24.6,30.08,NE,41,0.0,0.0,96,0.00,,,0.00,Wunderground v.1.15,2013-01-17 08:10:00,
2013-01-17 08:20:00,25.9,24.9,30.08,NE,41,0.0,0.0,96,0.00,,,0.00,Wunderground v.1.15,2013-01-17 08:20:00,
2013-01-17 08:25:00,26.0,25.0,30.08,NE,41,0.0,0.0,96,0.00,,,0.00,Wunderground v.1.15,2013-01-17 08:25:00,
2013-01-17 08:31:00,26.0,25.0,30.08,NE,41,0.0,0.0,96,0.00,,,0.00,Wunderground v.1.15,2013-01-17 08:31:00,
2013-01-17 08:40:00,26.2,25.2,30.08,NE,41,0.0,0.0,96,0.00,,,0.00,Wunderground v.1.15,2013-01-17 08:40:00,
2013-01-17 08:46:00,26.3,25.3,30.08,NE,41,0.0,0.0,96,0.00,,,0.00,Wunderground v.1.15,2013-01-17 08:46:00,
2013-01-17 08:55:00,26.5,25.5,30.08,NE,41,0.0,0.0,96,0.00,,,0.00,Wunderground v.1.15,2013-01-17 08:55:00,
2013-01-17 09:01:00,26.6,25.6,30.08,NE,41,0.0,0.0,96,0.00,,,0.00,Wunderground v.1.15,2013-01-17 09:01:00,
2013-01-17 09:10:00,26.8,25.8,30.08,NE,41,0.0,0.0,96,0.00,,,0.00,Wunderground v.1.15,2013-01-17 09:10:00,
2013-01-17 09:15:00,27.0,26.0,30.08,NE,41,0.0,0.0,96,0.00,,,0.00,Wunderground v.1.15,2013-01-17 09:15:00,
2013-01-17 09:20:00,27.1,26.1,30.08,NE,41,0.0,0.0,96,0.00,,,0.00,Wunderground v.1.15,2013-01-17 09:20:00,
2013-01-17 09:25:00,27.3,26.3,30.08,NE,41,0.0,0.0,96,0.00,,,0.00,Wunderground v.1.15,2013-01-17 09:25:00,
2013-01-17 09:30:00,27.4,26.4,30.08,NE,41,0.0,0.0,96,0.00,,,0.00,Wunderground v.1.15,2013-01-17 09:30:00,
2013-01-17 09:40:00,27.6,26.6,30.09,NE,40,0.0,0.0,96,0.00,,,0.00,Wunderground v.1.15,2013-01-17 09:40:00,
2013-01-17 09:45:00,27.8,26.8,30.09,NE,40,0.0,0.0,96,0.00,,,0.00,Wunderground v.1.15,2013-01-17 09:45:00,
2013-01-17 09:55:00,28.1,27.1,30.09,NE,41,0.0,0.0,96,0.00,,,0.00,Wunderground v.1.15,2013-01-17 09:55:00,
2013-01-17 10:01:00,28.3,27.3,30.09,NE,40,0.0,0.0,96,0.00,,,0.00,Wunderground v.1.15,2013-01-17 10:01:00,
2013-01-17 10:10:00,28.5,27.5,30.09,NE,40,0.0,0.0,96,0.00,,,0.00,Wunderground v.1.15,2013-01-17 10:10:00,
2013-01-17 10:15:00,28.5,27.5,30.09,NE,39,0.0,0.0,96,0.00,,,0.00,Wunderground v.1.15,2013-01-17 10:15:00,
2013-01-17 10:20:00,28.7,27.7,30.09,NE,39,0.0,0.0,96,0.00,,,0.00,Wunderground v.1.15,2013-01-17 10:20:00,
2013-01-17 10:31:00,28.8,27.5,30.09,NE,39,0.0,0.0,95,0.00,,,0.00,Wunderground v.1.15,2013-01-17 10:31:00,
2013-01-17 10:40:00,29.0,27.7,30.09,NE,39,0.0,0.0,95,0.00,,,0.00,Wunderground v.1.15,2013-01-17 10:40:00,
2013-01-17 10:50:00,29.2,27.9,30.09,NE,40,0.0,0.0,95,0.00,,,0.00,Wunderground v.1.15,2013-01-17 10:50:00,
2013-01-17 10:55:00,29.2,27.9,30.09,NE,39,0.0,0.0,95,0.00,,,0.00,Wunderground v.1.15,2013-01-17 10:55:00,
2013-01-17 11:00:00,29.3,28.0,30.09,NE,40,0.0,0.0,95,0.00,,,0.00,Wunderground v.1.15,2013-01-17 11:00:00,
2013-01-17 11:10:00,29.5,28.2,30.08,NE,40,0.0,0.0,95,0.00,,,0.00,Wunderground v.1.15,2013-01-17 11:10:00,
2013-01-17 11:15:00,29.6,28.3,30.08,NE,40,0.0,0.0,95,0.00,,,0.00,Wunderground v.1.15,2013-01-17 11:15:00,
2013-01-17 11:25:00,29.8,28.5,30.08,NE,40,0.0,0.0,95,0.00,,,0.00,Wunderground v.1.15,2013-01-17 11:25:00,
2013-01-17 11:31:00,29.9,28.6,30.08,NE,40,0.0,0.0,95,0.00,,,0.00,Wunderground v.1.15,2013-01-17 11:31:00,
2013-01-17 11:40:00,30.1,28.8,30.08,NE,40,0.0,0.0,95,0.00,,,0.00,Wunderground v.1.15,2013-01-17 11:40:00,
2013-01-17 11:50:00,30.2,28.7,30.08,NE,40,0.0,0.0,94,0.00,,,0.00,Wunderground v.1.15,2013-01-17 11:50:00,
2013-01-17 11:55:00,30.2,28.7,30.08,NE,40,0.0,0.0,94,0.00,,,0.00,Wunderground v.1.15,2013-01-17 11:55:00,
2013-01-17 12:00:00,30.3,28.8,30.08,NE,40,0.0,0.0,94,0.00,,,0.00,Wunderground v.1.15,2013-01-17 12:00:00,
2013-01-17 12:10:00,30.4,28.9,30.08,NE,40,0.0,0.0,94,0.00,,,0.00,Wunderground v.1.15,2013-01-17 12:10:00,
2013-01-17 12:20:00,30.5,29.0,30.07,NE,40,0.0,0.0,94,0.00,,,0.00,Wunderground v.1.15,2013-01-17 12:20:00,
2013-01-17 12:30:00,30.6,29.1,30.07,NE,40,0.0,0.0,94,0.00,,,0.00,Wunderground v.1.15,2013-01-17 12:30:00,
2013-01-17 12:40:00,30.7,29.2,30.07,NE,40,0.0,0.0,94,0.00,,,0.00,Wunderground v.1.15,2013-01-17 12:40:00,
2013-01-17 12:46:00,30.8,29.3,30.07,NE,39,0.0,0.0,94,0.00,,,0.00,Wunderground v.1.15,2013-01-17 12:46:00,
2013-01-17 12:55:00,31.0,29.5,30.06,NE,39,0.0,0.0,94,0.00,,,0.00,Wunderground v.1.15,2013-01-17 12:55:00,
2013-01-17 13:01:00,31.1,29.6,30.06,NE,40,0.0,0.0,94,0.00,,,0.00,Wunderground v.1.15,2013-01-17 13:01:00,
2013-01-17 13:10:00,31.4,30.1,30.06,NE,39,0.0,0.0,95,0.00,,,0.00,Wunderground v.1.15,2013-01-17 13:10:00,
2013-01-17 13:15:00,31.5,30.2,30.06,NE,39,0.0,0.0,95,0.00,,,0.00,Wunderground v.1.15,2013-01-17 13:15:00,
2013-01-17 13:25:00,31.7,30.4,30.06,NE,40,0.0,0.0,95,0.00,,,0.00,Wunderground v.1.15,2013-01-17 13:25:00,
2013-01-17 13:30:00,31.8,30.5,30.05,NE,40,0.0,0.0,95,0.00,,,0.00,Wunderground v.1.15,2013-01-17 13:30:00,
2013-01-17 13:40:00,31.9,30.6,30.05,NE,40,0.0,0.0,95,0.00,,,0.00,Wunderground v.1.15,2013-01-17 13:40:00,
2013-01-17 13:45:00,31.9,30.6,30.05,NE,39,0.0,0.0,95,0.00,,,0.00,Wunderground v.1.15,2013-01-17 13:45:00,
2013-01-17 13:55:00,32.0,30.5,30.05,ENE,72,0.0,0.0,94,0.00,,,0.00,Wunderground v.1.15,2013-01-17 13:55:00,
2013-01-17 14:01:00,32.1,30.6,30.05,East,95,0.0,0.0,94,0.00,,,0.00,Wunderground v.1.15,2013-01-17 14:01:00,
2013-01-17 14:10:00,32.2,30.7,30.05,East,96,0.0,0.0,94,0.00,,,0.00,Wunderground v.1.15,2013-01-17 14:10:00,
2013-01-17 14:15:00,32.2,30.7,30.05,East,95,0.0,0.0,94,0.00,,,0.00,Wunderground v.1.15,2013-01-17 14:15:00,
2013-01-17 14:25:00,32.3,30.8,30.05,East,95,0.0,0.0,94,0.00,,,0.00,Wunderground v.1.15,2013-01-17 14:25:00,
2013-01-17 14:31:00,32.4,30.9,30.05,East,95,0.0,0.0,94,0.00,,,0.00,Wunderground v.1.15,2013-01-17 14:31:00,
2013-01-17 14:40:00,32.5,31.0,30.05,East,95,0.0,0.0,94,0.00,,,0.00,Wunderground v.1.15,2013-01-17 14:40:00,
2013-01-17 14:46:00,32.5,31.0,30.04,East,95,0.0,0.0,94,0.00,,,0.00,Wunderground v.1.15,2013-01-17 14:46:00,
2013-01-17 14:55:00,32.6,31.1,30.04,East,96,0.0,0.0,94,0.00,,,0.00,Wunderground v.1.15,2013-01-17 14:55:00,
2013-01-17 15:00:00,32.6,31.1,30.04,East,96,0.0,0.0,94,0.00,,,0.00,Wunderground v.1.15,2013-01-17 15:00:00,
2013-01-17 15:10:00,32.6,31.1,30.03,East,96,0.0,0.0,94,0.00,,,0.00,Wunderground v.1.15,2013-01-17 15:10:00,
2013-01-17 15:20:00,32.5,31.0,30.03,East,96,0.0,0.0,94,0.00,,,0.00,Wunderground v.1.15,2013-01-17 15:20:00,
2013-01-17 15:25:00,32.5,31.0,30.03,East,96,0.0,0.0,94,0.00,,,0.00,Wunderground v.1.15,2013-01-17 15:25:00,
2013-01-17 15:31:00,32.5,31.0,30.03,East,95,0.0,0.0,94,0.00,,,0.00,Wunderground v.1.15,2013-01-17 15:31:00,
2013-01-17 15:40:00,32.5,31.0,30.03,East,95,0.0,0.0,94,0.00,,,0.00,Wunderground v.1.15,2013-01-17 15:40:00,
2013-01-17 15:45:00,32.4,30.9,30.03,East,95,0.0,0.0,94,0.00,,,0.00,Wunderground v.1.15,2013-01-17 15:45:00,
2013-01-17 15:55:00,32.4,30.9,30.02,East,95,0.0,0.0,94,0.00,,,0.00,Wunderground v.1.15,2013-01-17 15:55:00,
2013-01-17 16:00:00,32.3,30.8,30.02,East,96,0.0,0.0,94,0.00,,,0.00,Wunderground v.1.15,2013-01-17 16:00:00,
2013-01-17 16:10:00,32.3,30.8,30.02,East,96,0.0,0.0,94,0.00,,,0.00,Wunderground v.1.15,2013-01-17 16:10:00,
2013-01-17 16:15:00,32.2,30.7,30.02,East,95,0.0,0.0,94,0.00,,,0.00,Wunderground v.1.15,2013-01-17 16:15:00,
2013-01-17 16:25:00,32.2,30.7,30.02,East,96,0.0,0.0,94,0.00,,,0.00,Wunderground v.1.15,2013-01-17 16:25:00,
2013-01-17 16:31:00,32.1,30.6,30.02,East,95,0.0,0.0,94,0.00,,,0.00,Wunderground v.1.15,2013-01-17 16:31:00,
2013-01-17 16:40:00,32.1,30.6,30.02,East,95,0.0,0.0,94,0.00,,,0.00,Wunderground v.1.15,2013-01-17 16:40:00,
2013-01-17 16:46:00,32.0,32.0,30.02,East,95,0.0,0.0,100,0.00,,,0.00,Wunderground v.1.15,2013-01-17 16:46:00,
2013-01-17 16:55:00,31.9,30.4,30.02,NE,51,0.0,0.0,94,0.00,,,0.00,Wunderground v.1.15,2013-01-17 16:55:00,
2013-01-17 17:01:00,31.9,30.4,30.02,NE,51,0.0,0.0,94,0.00,,,0.00,Wunderground v.1.15,2013-01-17 17:01:00,
2013-01-17 17:10:00,31.9,30.4,30.01,NE,51,0.0,0.0,94,0.00,,,0.00,Wunderground v.1.15,2013-01-17 17:10:00,
2013-01-17 17:20:00,31.8,30.3,30.01,NE,51,0.0,0.0,94,0.00,,,0.00,Wunderground v.1.15,2013-01-17 17:20:00,
2013-01-17 17:30:00,31.8,30.3,30.01,NE,51,0.0,0.0,94,0.00,,,0.00,Wunderground v.1.15,2013-01-17 17:30:00,
2013-01-17 17:40:00,31.8,30.3,30.01,NE,52,0.0,0.0,94,0.00,,,0.00,Wunderground v.1.15,2013-01-17 17:40:00,
2013-01-17 17:45:00,31.8,30.3,30.01,NE,53,0.0,0.0,94,0.00,,,0.00,Wunderground v.1.15,2013-01-17 17:45:00,
2013-01-17 17:55:00,31.8,30.3,30.00,NE,53,0.0,0.0,94,0.00,,,0.00,Wunderground v.1.15,2013-01-17 17:55:00,
2013-01-17 18:01:00,31.8,30.3,30.00,NE,53,0.0,0.0,94,0.00,,,0.00,Wunderground v.1.15,2013-01-17 18:01:00,
2013-01-17 18:10:00,31.7,30.2,30.00,NE,53,0.0,0.0,94,0.00,,,0.00,Wunderground v.1.15,2013-01-17 18:10:00,
2013-01-17 18:15:00,31.8,30.5,30.00,NE,53,0.0,0.0,95,0.00,,,0.00,Wunderground v.1.15,2013-01-17 18:15:00,
2013-01-17 18:20:00,31.8,30.5,30.00,NE,53,0.0,0.0,95,0.00,,,0.00,Wunderground v.1.15,2013-01-17 18:20:00,
2013-01-17 18:31:00,31.8,30.3,30.00,NE,53,0.0,0.0,94,0.00,,,0.00,Wunderground v.1.15,2013-01-17 18:31:00,
2013-01-17 18:40:00,31.7,30.2,30.00,NE,53,0.0,0.0,94,0.00,,,0.00,Wunderground v.1.15,2013-01-17 18:40:00,
2013-01-17 18:46:00,31.7,30.2,30.00,NE,53,0.0,0.0,94,0.00,,,0.00,Wunderground v.1.15,2013-01-17 18:46:00,
2013-01-17 18:55:00,31.7,30.2,29.99,NE,53,0.0,0.0,94,0.00,,,0.00,Wunderground v.1.15,2013-01-17 18:55:00,
2013-01-17 19:01:00,31.7,30.2,29.99,ENE,64,0.0,0.0,94,0.00,,,0.00,Wunderground v.1.15,2013-01-17 19:01:00,
2013-01-17 19:10:00,31.8,30.5,29.99,NE,55,0.0,0.0,95,0.00,,,0.00,Wunderground v.1.15,2013-01-17 19:10:00,
2013-01-17 19:15:00,31.9,30.6,29.99,ENE,72,0.0,0.0,95,0.00,,,0.00,Wunderground v.1.15,2013-01-17 19:15:00,
2013-01-17 19:25:00,32.0,30.5,29.98,East,82,0.0,0.0,94,0.00,,,0.00,Wunderground v.1.15,2013-01-17 19:25:00,
2013-01-17 19:31:00,32.0,30.5,29.99,East,80,0.0,0.0,94,0.00,,,0.00,Wunderground v.1.15,2013-01-17 19:31:00,
2013-01-17 19:40:00,32.0,30.5,29.98,ENE,64,0.0,0.0,94,0.00,,,0.00,Wunderground v.1.15,2013-01-17 19:40:00,
2013-01-17 19:45:00,32.1,30.6,29.98,ENE,61,0.0,0.0,94,0.00,,,0.00,Wunderground v.1.15,2013-01-17 19:45:00,
2013-01-17 19:55:00,32.2,30.7,29.98,East,82,0.0,0.0,94,0.00,,,0.00,Wunderground v.1.15,2013-01-17 19:55:00,
2013-01-17 20:01:00,32.3,30.5,29.98,East,79,0.0,0.0,93,0.00,,,0.00,Wunderground v.1.15,2013-01-17 20:01:00,
2013-01-17 20:10:00,32.4,30.6,29.98,East,87,0.0,0.0,93,0.00,,,0.00,Wunderground v.1.15,2013-01-17 20:10:00,
2013-01-17 20:20:00,32.5,30.7,29.97,ENE,78,0.0,0.0,93,0.00,,,0.00,Wunderground v.1.15,2013-01-17 20:20:00,
2013-01-17 20:31:00,32.6,30.5,29.97,East,80,0.0,0.0,92,0.00,,,0.00,Wunderground v.1.15,2013-01-17 20:31:00,
2013-01-17 20:40:00,32.7,30.6,29.97,ENE,64,0.0,0.0,92,0.00,,,0.00,Wunderground v.1.15,2013-01-17 20:40:00,
2013-01-17 20:45:00,32.7,30.4,29.97,East,80,0.0,0.0,91,0.00,,,0.00,Wunderground v.1.15,2013-01-17 20:45:00,
2013-01-17 20:55:00,32.8,30.5,29.97,East,92,0.0,0.0,91,0.00,,,0.00,Wunderground v.1.15,2013-01-17 20:55:00,
2013-01-17 21:01:00,32.8,30.2,29.97,East,92,0.0,0.0,90,0.00,,,0.00,Wunderground v.1.15,2013-01-17 21:01:00,
2013-01-17 21:10:00,32.9,30.0,29.96,ESE,103,0.0,0.0,89,0.00,,,0.00,Wunderground v.1.15,2013-01-17 21:10:00,
2013-01-17 21:15:00,32.9,30.0,29.96,East,90,0.0,0.0,89,0.00,,,0.00,Wunderground v.1.15,2013-01-17 21:15:00,
2013-01-17 21:26:00,33.0,29.8,29.96,ESE,103,0.0,0.0,88,0.00,,,0.00,Wunderground v.1.15,2013-01-17 21:26:00,
2013-01-17 21:31:00,33.0,29.8,29.96,East,84,0.0,0.0,88,0.00,,,0.00,Wunderground v.1.15,2013-01-17 21:31:00,
2013-01-17 21:40:00,33.0,29.8,29.95,ENE,69,0.0,0.0,88,0.00,,,0.00,Wunderground v.1.15,2013-01-17 21:40:00,
2013-01-17 21:45:00,33.1,29.9,29.95,ENE,74,0.0,0.0,88,0.00,,,0.00,Wunderground v.1.15,2013-01-17 21:45:00,
2013-01-17 21:55:00,33.1,29.7,29.95,East,92,0.0,0.0,87,0.00,,,0.00,Wunderground v.1.15,2013-01-17 21:55:00,
2013-01-17 22:01:00,33.1,29.4,29.95,East,98,0.0,0.0,86,0.00,,,0.00,Wunderground v.1.15,2013-01-17 22:01:00,
2013-01-17 22:10:00,33.2,29.5,29.94,ENE,70,0.0,0.0,86,0.00,,,0.00,Wunderground v.1.15,2013-01-17 22:10:00,
2013-01-17 22:15:00,33.1,29.4,29.94,East,96,0.0,0.0,86,0.00,,,0.00,Wunderground v.1.15,2013-01-17 22:15:00,
2013-01-17 22:25:00,33.2,29.2,29.93,East,84,0.0,0.0,85,0.00,,,0.00,Wunderground v.1.15,2013-01-17 22:25:00,
2013-01-17 22:30:00,33.3,29.6,29.93,ESE,114,0.0,0.0,86,0.00,,,0.00,Wunderground v.1.15,2013-01-17 22:30:00,
2013-01-17 22:41:00,33.2,29.2,29.92,East,86,0.0,0.0,85,0.00,,,0.00,Wunderground v.1.15,2013-01-17 22:41:00,
2013-01-17 22:46:00,33.2,29.2,29.92,ESE,108,0.0,0.0,85,0.00,,,0.00,Wunderground v.1.15,2013-01-17 22:46:00,
2013-01-17 22:55:00,33.2,29.2,29.91,ESE,104,0.0,0.0,85,0.00,,,0.00,Wunderground v.1.15,2013-01-17 22:55:00,
2013-01-17 23:01:00,33.2,29.2,29.91,ESE,102,0.0,0.0,85,0.00,,,0.00,Wunderground v.1.15,2013-01-17 23:01:00,
2013-01-17 23:10:00,33.2,29.2,29.91,East,98,0.0,0.0,85,0.00,,,0.00,Wunderground v.1.15,2013-01-17 23:10:00,
2013-01-17 23:15:00,33.2,29.2,29.91,East,89,0.0,0.0,85,0.00,,,0.00,Wunderground v.1.15,2013-01-17 23:15:00,
2013-01-17 23:25:00,33.2,29.2,29.90,ENE,78,0.0,0.0,85,0.00,,,0.00,Wunderground v.1.15,2013-01-17 23:25:00,
2013-01-17 23:31:00,33.2,28.9,29.90,East,86,0.0,0.0,84,0.00,,,0.00,Wunderground v.1.15,2013-01-17 23:31:00,
2013-01-17 23:40:00,33.3,29.0,29.89,East,94,0.0,0.0,84,0.00,,,0.00,Wunderground v.1.15,2013-01-17 23:40:00,
2013-01-17 23:45:00,33.4,28.8,29.89,East,96,0.0,0.0,83,0.00,,,0.00,Wunderground v.1.15,2013-01-17 23:45:00,
2013-01-17 23:55:00,33.5,28.9,29.89,East,85,0.0,0.0,83,0.00,,,0.00,Wunderground v.1.15,2013-01-17 23:55:00,